EKSN/CNL METAR and TAF weather

Enter ICAO airport designator
Station Type Date Time Source
EKSN METAR 2019/10/16 13:50 UTC NOAA

EKSN 161350Z 27005KT 4000 -RA SCT005 BKN030 12/12 Q1005


Station Type Date Time Source
EKSN Decoded METAR 2019/10/16 13:50 UTC NOAA

Sindal Flyveplads, Denmark (EKSN) 57-30N 010-13E 28M
Oct 16, 2019 - 09:50 AM EDT / 2019.10.16 1350 UTC
Wind: from the W (270 degrees) at 6 MPH (5 KT):0
Visibility: 2 mile(s):0
Sky conditions: mostly cloudy
Weather: light rain
Temperature: 53 F (12 C)
Dew Point: 53 F (12 C)
Relative Humidity: 100%
Pressure (altimeter): 29.68 in. Hg (1005 hPa)
ob: EKSN 161350Z 27005KT 4000 -RA SCT005 BKN030 12/12 Q1005
cycle: 14

Station Type Date Time Source
EKSN TAF UTC NOAA

Error!

Example: see airport list